Time;durP1;ratioP1;P1;durP2;ratioP2;P2;SDS_P1;SDS_P2;PMS_P1;PMS_P2;Temp;Humidity;BMP_temperature;BMP_pressure;BME280_temperature;BME280_humidity;BME280_pressure;Samples;Min_cycle;Max_cycle;Signal;HPM_P1;HPM_P2
2022/11/11 00:00:47;;;;;;;1.20;1.10;;;6.00;97.50;5.10;97352.00;;;;5095707;28;20327;-56
2022/11/11 00:03:15;;;;;;;1.03;1.03;;;6.00;97.60;5.10;97349.00;;;;5095803;28;20187;-56
2022/11/11 00:05:42;;;;;;;1.00;1.00;;;6.00;97.90;5.00;97352.00;;;;5095609;28;20222;-57
2022/11/11 00:08:08;;;;;;;1.67;1.57;;;5.90;97.20;4.80;97349.00;;;;5095852;28;20213;-58
2022/11/11 00:10:35;;;;;;;7.83;1.87;;;5.80;96.60;4.70;97355.00;;;;5095593;28;20220;-56
2022/11/11 00:13:04;;;;;;;2.60;2.40;;;5.60;97.00;4.80;97349.00;;;;5095585;28;20194;-57
2022/11/11 00:15:31;;;;;;;1.80;1.70;;;5.70;97.90;4.70;97351.00;;;;5095574;28;20267;-57
2022/11/11 00:26:14;;;;;;;1.00;1.00;;;5.50;97.30;4.50;97340.00;;;;5095474;28;20712;-57
2022/11/11 00:28:41;;;;;;;1.40;1.33;;;5.40;97.60;4.60;97303.00;;;;5095278;28;20194;-57
2022/11/11 00:31:11;;;;;;;1.10;1.10;;;5.50;98.00;4.60;97346.00;;;;5095314;28;20678;-58
2022/11/11 00:33:38;;;;;;;1.20;1.10;;;5.50;97.80;4.50;97344.00;;;;5095223;28;20218;-59
2022/11/11 00:36:06;;;;;;;0.87;0.87;;;5.40;97.40;4.50;97351.00;;;;5095097;28;20291;-57
2022/11/11 00:38:48;;;;;;;1.03;1.03;;;5.40;97.90;4.60;97354.00;;;;5095212;28;20282;-57
2022/11/11 00:41:17;;;;;;;0.70;0.70;;;5.40;98.40;4.50;97344.00;;;;5095145;28;20233;-59
2022/11/11 00:43:46;;;;;;;0.73;0.73;;;5.40;98.00;4.50;97351.00;;;;5095270;28;20187;-57
2022/11/11 00:51:46;;;;;;;0.83;0.83;;;5.50;98.40;4.60;97370.00;;;;5095063;28;20207;-59
2022/11/11 00:54:15;;;;;;;0.60;0.60;;;5.50;98.10;4.60;97366.00;;;;5094986;28;20222;-60
2022/11/11 00:56:42;;;;;;;0.67;0.67;;;5.50;97.40;4.40;97365.00;;;;5094839;28;20214;-59
2022/11/11 00:59:08;;;;;;;0.90;0.90;;;5.30;96.40;4.30;97364.00;;;;5094770;28;20567;-57
2022/11/11 01:01:37;;;;;;;0.83;0.83;;;5.20;96.70;4.30;97365.00;;;;5093991;28;20198;-57
2022/11/11 01:04:04;;;;;;;1.23;1.23;;;;;4.40;97368.00;;;;5094901;28;20654;-57
2022/11/11 01:06:31;;;;;;;1.70;1.27;;;5.20;96.90;4.40;97362.00;;;;5094720;28;20233;-57
2022/11/11 01:08:57;;;;;;;1.20;1.20;;;5.20;97.40;4.40;97362.00;;;;5094853;28;20206;-56
2022/11/11 01:11:26;;;;;;;0.83;0.83;;;5.20;97.30;4.40;97366.00;;;;5094736;28;20326;-58
2022/11/11 01:13:53;;;;;;;0.57;0.57;;;5.30;97.20;4.30;97356.00;;;;5095201;28;20200;-56
2022/11/11 01:16:22;;;;;;;0.63;0.63;;;5.30;96.80;4.20;97364.00;;;;5094721;28;20281;-57
2022/11/11 01:18:50;;;;;;;0.83;0.83;;;5.20;96.50;4.20;97375.00;;;;5094635;28;20290;-56
2022/11/11 01:21:19;;;;;;;0.80;0.80;;;5.10;96.70;4.20;97369.00;;;;5093660;28;20524;-56
2022/11/11 01:23:48;;;;;;;0.83;0.83;;;5.10;96.90;4.10;97376.00;;;;5094859;28;20229;-57
2022/11/11 01:26:18;;;;;;;1.03;1.03;;;5.00;96.10;3.90;97380.00;;;;5094460;28;20212;-56
2022/11/11 01:28:49;;;;;;;1.20;1.20;;;4.90;95.80;3.90;97380.00;;;;5094552;28;20227;-57
2022/11/11 01:31:21;;;;;;;1.10;1.10;;;4.80;96.20;3.70;97377.00;;;;5094753;28;20209;-57
2022/11/11 01:33:48;;;;;;;1.20;1.10;;;4.70;95.90;3.60;97387.00;;;;5076646;28;20206;-62
2022/11/11 01:36:17;;;;;;;0.80;0.80;;;4.60;96.30;3.80;97382.00;;;;5092962;28;20226;-61
2022/11/11 01:38:48;;;;;;;0.90;0.90;;;4.60;97.00;3.70;97373.00;;;;5076613;28;20276;-61
2022/11/11 01:41:33;;;;;;;1.63;1.27;;;4.70;97.00;3.80;97363.00;;;;5076559;28;20202;-57
2022/11/11 01:44:00;;;;;;;0.70;0.70;;;4.70;97.00;3.80;97361.00;;;;5094366;28;20214;-57
2022/11/11 01:46:36;;;;;;;0.93;0.93;;;4.80;96.50;3.80;97357.00;;;;5094506;28;20206;-58
2022/11/11 01:49:37;;;;;;;1.17;1.17;;;4.70;96.20;3.90;97371.00;;;;5076560;28;20228;-63
2022/11/11 01:52:10;;;;;;;0.60;0.60;;;4.70;96.70;4.00;97378.00;;;;5088655;28;20214;-56
2022/11/11 01:54:43;;;;;;;1.00;1.00;;;4.80;96.70;3.90;97381.00;;;;5094183;28;20222;-58
2022/11/11 01:57:22;;;;;;;1.07;1.07;;;4.80;95.70;4.00;97374.00;;;;5094085;28;20536;-58
2022/11/11 01:59:59;;;;;;;0.97;0.97;;;4.80;95.90;3.90;97374.00;;;;5094049;28;20199;-56
2022/11/11 02:02:34;;;;;;;1.00;1.00;;;4.80;99.90;3.80;97369.00;;;;5094415;28;20194;-56
2022/11/11 02:07:50;;;;;;;1.17;1.10;;;4.80;96.20;3.80;97366.00;;;;5094223;28;20206;-57
2022/11/11 02:10:21;;;;;;;1.53;1.43;;;4.80;96.00;3.70;97360.00;;;;5094088;28;20615;-59
2022/11/11 02:15:32;;;;;;;0.90;0.90;;;4.60;95.70;3.60;97359.00;;;;5093939;28;20202;-56
2022/11/11 02:18:01;;;;;;;0.80;0.80;;;4.50;96.20;3.70;97353.00;;;;5093713;28;20231;-58
2022/11/11 02:20:33;;;;;;;1.33;1.30;;;4.50;96.60;3.70;97327.00;;;;5093824;28;20191;-58
2022/11/11 02:23:08;;;;;;;0.80;0.80;;;4.60;96.30;3.60;97377.00;;;;5093777;28;20209;-55
2022/11/11 02:25:40;;;;;;;1.10;1.10;;;4.50;96.90;3.60;97378.00;;;;5093694;28;20195;-56
2022/11/11 02:28:08;;;;;;;0.80;0.80;;;4.50;95.80;3.60;97372.00;;;;5093782;28;20328;-57
2022/11/11 02:30:35;;;;;;;0.70;0.70;;;4.40;95.80;3.50;97367.00;;;;5093469;28;20210;-56
2022/11/11 02:33:01;;;;;;;1.00;1.00;;;4.40;96.10;3.70;97360.00;;;;5093781;28;20225;-55
2022/11/11 02:35:33;;;;;;;2.43;1.27;;;4.50;99.90;3.80;97363.00;;;;5093722;28;20191;-58
2022/11/11 02:38:07;;;;;;;0.60;0.60;;;;;3.90;97365.00;;;;5093439;28;20252;-56
2022/11/11 02:41:55;;;;;;;0.93;0.93;;;4.60;97.10;3.90;97373.00;;;;5093508;28;20250;-56
2022/11/11 02:43:27;;;;;;;1.10;1.10;;;4.80;97.90;4.00;97378.00;;;;5093421;28;20222;-56
2022/11/11 02:45:54;;;;;;;0.87;0.87;;;4.90;98.20;4.10;97365.00;;;;5093356;28;20727;-58
2022/11/11 02:48:21;;;;;;;1.40;1.40;;;4.90;97.70;3.90;97347.00;;;;5096924;28;20221;-56
2022/11/11 02:50:47;;;;;;;1.00;1.00;;;4.90;97.10;3.80;97377.00;;;;5095962;28;20288;-59
2022/11/11 02:53:16;;;;;;;1.00;1.00;;;4.70;96.90;3.70;97367.00;;;;5096880;28;20202;-58
2022/11/11 02:55:44;;;;;;;1.07;1.07;;;4.70;96.80;3.60;97365.00;;;;5096878;28;20279;-57
2022/11/11 02:58:11;;;;;;;1.00;1.00;;;4.50;96.50;3.60;97373.00;;;;5097066;28;20187;-61
2022/11/11 03:00:41;;;;;;;1.37;1.23;;;4.60;97.10;3.60;97370.00;;;;5097114;28;20259;-56
2022/11/11 03:03:08;;;;;;;0.93;0.93;;;4.40;96.60;3.60;97374.00;;;;5097009;28;20194;-58
2022/11/11 03:05:35;;;;;;;0.97;0.97;;;4.50;97.00;3.50;97384.00;;;;5096934;28;20210;-57
2022/11/11 03:08:04;;;;;;;0.83;0.83;;;4.50;96.90;3.40;97364.00;;;;5096558;28;20242;-58
2022/11/11 03:10:30;;;;;;;0.97;0.97;;;4.40;96.40;3.40;97359.00;;;;5096574;28;20194;-56
2022/11/11 03:13:00;;;;;;;1.23;1.13;;;4.40;99.90;3.40;97359.00;;;;5096721;28;20544;-57
2022/11/11 03:15:29;;;;;;;1.03;1.03;;;4.40;99.90;3.40;97354.00;;;;5096530;28;20222;-57
2022/11/11 03:17:57;;;;;;;0.80;0.80;;;4.40;99.90;3.40;97357.00;;;;5096467;28;20283;-55
2022/11/11 03:23:20;;;;;;;0.77;0.77;;;4.20;96.20;3.30;97360.00;;;;5034458;28;20523;-56
2022/11/11 03:25:49;;;;;;;0.70;0.70;;;4.20;96.50;3.20;97361.00;;;;5082297;28;20206;-58
2022/11/11 03:28:18;;;;;;;1.03;0.93;;;;;3.30;97358.00;;;;5096556;28;20281;-58
2022/11/11 03:30:47;;;;;;;0.70;0.70;;;4.20;96.60;3.30;97344.00;;;;5096113;28;20219;-57
2022/11/11 03:33:17;;;;;;;0.70;0.70;;;4.30;97.10;3.40;97354.00;;;;5078445;28;20195;-58
2022/11/11 03:35:45;;;;;;;1.10;1.10;;;4.30;96.90;3.40;97351.00;;;;5096183;28;20659;-58
2022/11/11 03:38:22;;;;;;;1.00;1.00;;;4.30;96.50;3.30;97354.00;;;;5095973;28;20210;-58
2022/11/11 03:40:51;;;;;;;0.77;0.77;;;4.30;96.10;3.10;97353.00;;;;5096013;28;20244;-58
2022/11/11 03:43:21;;;;;;;0.80;0.80;;;;;3.20;97352.00;;;;5096035;28;20226;-56
2022/11/11 03:45:47;;;;;;;0.80;0.80;;;4.10;95.20;3.10;97360.00;;;;5095948;28;20608;-58
2022/11/11 03:48:14;;;;;;;0.83;0.83;;;;;3.20;97355.00;;;;5096080;28;20221;-58
2022/11/11 03:50:46;;;;;;;0.80;0.80;;;4.10;95.50;3.20;97359.00;;;;5095990;28;20186;-56
2022/11/11 03:53:13;;;;;;;0.80;0.80;;;4.10;96.20;3.20;97364.00;;;;5095885;28;20655;-58
2022/11/11 03:55:40;;;;;;;0.70;0.70;;;4.20;95.80;3.20;97365.00;;;;5096009;28;20202;-56
2022/11/11 03:58:06;;;;;;;0.87;0.87;;;4.10;95.80;3.20;97371.00;;;;5094527;28;20235;-56
2022/11/11 04:00:34;;;;;;;0.70;0.70;;;4.10;95.90;3.30;97358.00;;;;5095745;28;20256;-58
2022/11/11 04:11:19;;;;;;;0.80;0.80;;;4.30;96.60;3.40;97365.00;;;;5095672;28;20222;-56
2022/11/11 04:16:36;;;;;;;1.00;1.00;;;4.30;96.70;3.30;97375.00;;;;5095622;28;20226;-57
2022/11/11 04:21:48;;;;;;;0.60;0.60;;;4.20;96.90;3.20;97382.00;;;;5095435;28;20249;-57
2022/11/11 04:27:05;;;;;;;0.77;0.77;;;4.10;96.50;3.10;97376.00;;;;5095444;28;20308;-58
2022/11/11 04:29:31;;;;;;;0.80;0.80;;;4.10;96.60;3.10;97384.00;;;;5095339;28;20203;-58
2022/11/11 04:35:03;;;;;;;1.60;1.50;;;4.10;96.60;3.10;97373.00;;;;5033352;28;20227;-57
2022/11/11 04:37:31;;;;;;;0.80;0.80;;;;;3.00;97371.00;;;;5058642;28;20253;-57
2022/11/11 04:42:43;;;;;;;0.80;0.80;;;;;2.80;97363.00;;;;5095082;28;20268;-57
2022/11/11 04:45:29;;;;;;;0.70;0.70;;;;;2.80;97369.00;;;;5095067;28;20209;-57
2022/11/11 04:47:58;;;;;;;0.73;0.73;;;;;2.70;97371.00;;;;5077416;28;20617;-57
2022/11/11 04:50:27;;;;;;;0.97;0.97;;;;;2.80;97365.00;;;;5095044;28;20210;-57
2022/11/11 04:52:55;;;;;;;1.17;1.17;;;;;2.70;97368.00;;;;5094900;28;20603;-57
2022/11/11 04:58:06;;;;;;;2.23;1.47;;;;;2.70;97377.00;;;;5077050;28;20221;-58
2022/11/11 05:00:35;;;;;;;1.00;1.00;;;3.50;96.30;2.60;97371.00;;;;5094849;28;20251;-57
2022/11/11 05:03:15;;;;;;;0.90;0.90;;;3.60;96.70;2.60;97376.00;;;;5094713;28;20232;-59
2022/11/11 05:11:17;;;;;;;0.60;0.60;;;3.60;97.00;2.70;97382.00;;;;5094422;28;20233;-59
2022/11/11 05:22:12;;;;;;;0.70;0.70;;;3.70;97.60;2.70;97419.00;;;;5094476;28;20252;-57
2022/11/11 05:27:25;;;;;;;0.87;0.87;;;3.60;97.60;2.60;97429.00;;;;5076485;28;20222;-57
2022/11/11 05:29:52;;;;;;;0.90;0.90;;;3.60;97.50;2.40;97423.00;;;;5094316;28;20195;-57
2022/11/11 05:32:21;;;;;;;0.90;0.90;;;3.50;97.10;2.50;97418.00;;;;5094395;28;20198;-58
2022/11/11 05:34:48;;;;;;;0.80;0.80;;;3.40;98.00;2.40;97420.00;;;;5076592;28;20202;-57
2022/11/11 05:37:15;;;;;;;1.23;1.13;;;3.30;97.90;2.40;97431.00;;;;5094137;28;20659;-57
2022/11/11 05:39:42;;;;;;;0.70;0.70;;;3.40;98.30;2.40;97438.00;;;;5076250;28;20241;-57
2022/11/11 05:42:09;;;;;;;1.70;1.60;;;;;2.40;97445.00;;;;5094127;28;20270;-57
2022/11/11 05:44:36;;;;;;;8.50;1.53;;;3.30;97.60;2.40;97454.00;;;;5094162;28;20595;-58
2022/11/11 05:47:02;;;;;;;0.70;0.70;;;3.30;98.20;2.20;97457.00;;;;5094266;28;20498;-59
2022/11/11 05:49:29;;;;;;;1.20;1.10;;;3.30;98.10;2.30;97454.00;;;;5076225;28;20210;-58
2022/11/11 05:51:56;;;;;;;1.03;1.03;;;3.30;98.80;2.40;97447.00;;;;5076246;28;20211;-57
2022/11/11 05:54:23;;;;;;;0.70;0.70;;;3.30;98.30;2.40;97454.00;;;;5094352;28;20260;-57
2022/11/11 05:56:50;;;;;;;0.70;0.70;;;3.30;99.10;2.40;97456.00;;;;5093981;28;20642;-57
2022/11/11 05:59:16;;;;;;;0.80;0.80;;;3.30;99.00;2.50;97452.00;;;;5093903;28;20202;-58
2022/11/11 06:01:43;;;;;;;0.83;0.83;;;3.40;99.40;2.50;97468.00;;;;5093871;28;20228;-60
2022/11/11 06:04:12;;;;;;;0.60;0.60;;;3.40;99.00;2.50;97459.00;;;;5093946;28;20225;-57
2022/11/11 06:06:40;;;;;;;1.30;1.23;;;3.30;98.60;2.40;97477.00;;;;5093033;28;20226;-56
2022/11/11 06:09:07;;;;;;;1.00;1.00;;;3.40;99.40;2.50;97470.00;;;;5093942;28;20281;-59
2022/11/11 06:11:34;;;;;;;0.60;0.60;;;3.40;99.90;2.60;97477.00;;;;5093849;28;20209;-58
2022/11/11 06:14:01;;;;;;;0.67;0.67;;;3.40;99.90;2.60;97467.00;;;;5093742;28;20198;-57
2022/11/11 06:16:28;;;;;;;0.70;0.70;;;3.50;99.90;2.60;97470.00;;;;5093584;28;20279;-56
2022/11/11 06:18:54;;;;;;;0.90;0.90;;;3.50;99.90;2.70;97484.00;;;;5093554;28;20225;-62
2022/11/11 06:21:21;;;;;;;0.77;0.77;;;3.60;99.90;3.00;97457.00;;;;5094325;28;20383;-56
2022/11/11 06:23:47;;;;;;;0.80;0.80;;;3.80;99.90;3.00;97478.00;;;;5097403;28;20222;-57
2022/11/11 06:26:15;;;;;;;0.83;0.83;;;3.90;99.90;3.10;97486.00;;;;5097181;28;20655;-55
2022/11/11 06:28:44;;;;;;;0.60;0.60;;;4.00;99.90;3.30;97482.00;;;;5097290;28;20230;-57
2022/11/11 06:31:14;;;;;;;0.60;0.60;;;4.20;99.90;3.40;97475.00;;;;5097482;28;20614;-56
2022/11/11 06:33:43;;;;;;;0.60;0.60;;;4.30;99.90;3.50;97489.00;;;;5097269;28;20301;-57
2022/11/11 06:36:13;;;;;;;1.03;1.03;;;4.40;99.90;3.50;97497.00;;;;5097172;28;20194;-57
2022/11/11 06:38:40;;;;;;;0.63;0.63;;;4.40;99.90;3.50;97498.00;;;;5097179;28;20627;-61
2022/11/11 06:41:07;;;;;;;0.93;0.93;;;4.40;99.90;3.30;97484.00;;;;5097046;28;20223;-58
2022/11/11 06:43:34;;;;;;;1.17;1.07;;;4.30;99.50;3.20;97495.00;;;;5097005;28;20530;-58
2022/11/11 06:46:03;;;;;;;1.47;1.37;;;4.20;98.90;3.10;97495.00;;;;5096818;28;20241;-59
2022/11/11 06:48:30;;;;;;;2.07;1.97;;;4.10;98.70;3.00;97500.00;;;;5097216;28;20199;-58
2022/11/11 06:51:02;;;;;;;1.20;0.97;;;4.00;98.50;3.00;97491.00;;;;5096960;28;20209;-59
2022/11/11 06:53:29;;;;;;;1.73;1.63;;;3.90;99.10;2.90;97494.00;;;;5096089;28;20285;-59
2022/11/11 06:55:58;;;;;;;2.43;2.27;;;3.80;97.90;2.80;97490.00;;;;5097132;28;20311;-57
2022/11/11 06:58:25;;;;;;;1.63;1.40;;;3.80;97.70;2.90;97497.00;;;;5096871;28;20227;-58
2022/11/11 07:00:52;;;;;;;4.93;1.83;;;3.80;97.60;2.80;97496.00;;;;5095797;28;20280;-60
2022/11/11 07:03:21;;;;;;;8.83;5.60;;;3.70;97.40;2.70;97494.00;;;;5096715;28;20280;-61
2022/11/11 07:05:50;;;;;;;3.50;3.20;;;3.70;97.30;2.80;97490.00;;;;5096820;28;20209;-57
2022/11/11 07:08:18;;;;;;;1.93;1.83;;;3.70;97.70;2.80;97499.00;;;;5078874;28;20234;-59
2022/11/11 07:10:46;;;;;;;1.17;1.17;;;3.80;97.60;2.80;97499.00;;;;5095760;28;20195;-58
2022/11/11 07:13:14;;;;;;;3.90;1.17;;;3.70;97.30;2.80;97497.00;;;;5097030;28;20225;-62
2022/11/11 07:15:42;;;;;;;2.37;1.47;;;3.70;97.10;2.90;97500.00;;;;5096557;28;20218;-56
2022/11/11 07:18:11;;;;;;;0.70;0.70;;;3.70;97.20;2.90;97495.00;;;;5096470;28;20600;-57
2022/11/11 07:20:39;;;;;;;0.70;0.70;;;3.80;96.90;3.00;97499.00;;;;5096518;28;20194;-57
2022/11/11 07:23:06;;;;;;;1.53;1.43;;;3.90;96.70;3.00;97505.00;;;;5096415;28;20485;-57
2022/11/11 07:25:33;;;;;;;0.80;0.80;;;3.90;96.30;2.80;97364.00;;;;5096535;28;20281;-57
2022/11/11 07:28:02;;;;;;;0.70;0.70;;;3.80;95.30;2.80;97514.00;;;;5096397;28;20202;-57
2022/11/11 07:30:29;;;;;;;0.90;0.90;;;3.80;96.10;2.90;97525.00;;;;5096277;28;20320;-57
2022/11/11 07:32:55;;;;;;;0.70;0.70;;;3.70;96.30;3.00;97526.00;;;;5096292;28;20261;-58
2022/11/11 07:35:23;;;;;;;1.27;1.27;;;3.90;96.20;2.90;97518.00;;;;5096161;28;20222;-58
2022/11/11 07:37:52;;;;;;;1.13;1.00;;;3.80;95.70;2.90;97519.00;;;;5096233;28;20218;-56
2022/11/11 07:40:19;;;;;;;1.13;1.13;;;3.80;95.80;3.00;97515.00;;;;5096026;28;20579;-56
2022/11/11 07:42:46;;;;;;;0.80;0.80;;;3.90;96.30;3.20;97512.00;;;;5096001;28;20199;-56
2022/11/11 07:45:15;;;;;;;0.70;0.70;;;4.00;96.20;3.30;97505.00;;;;5095995;28;20198;-56
2022/11/11 07:47:44;;;;;;;1.17;1.17;;;4.10;96.10;3.50;97505.00;;;;5095792;28;20233;-58
2022/11/11 07:50:13;;;;;;;0.70;0.70;;;4.20;95.80;3.60;97514.00;;;;5095876;28;20190;-60
2022/11/11 07:52:48;;;;;;;2.10;1.90;;;4.40;95.20;3.80;97511.00;;;;5095730;28;20222;-58
2022/11/11 07:55:17;;;;;;;1.47;1.37;;;4.60;95.10;4.10;97519.00;;;;5096043;28;20702;-58
2022/11/11 07:57:44;;;;;;;0.73;0.73;;;4.80;94.70;4.20;97518.00;;;;5095948;28;20512;-56
2022/11/11 08:00:14;;;;;;;1.60;0.97;;;4.90;94.10;4.30;97521.00;;;;5094724;28;20519;-57
2022/11/11 08:02:46;;;;;;;0.73;0.73;;;5.10;93.60;4.40;97521.00;;;;5095708;28;20200;-56
2022/11/11 08:05:13;;;;;;;1.37;1.20;;;5.10;91.70;4.20;97516.00;;;;5095635;28;20220;-57
2022/11/11 08:07:41;;;;;;;0.90;0.90;;;5.00;91.40;4.20;97509.00;;;;5095718;28;20201;-56
2022/11/11 08:10:09;;;;;;;0.90;0.90;;;5.10;93.40;4.50;97516.00;;;;5095575;28;20226;-57
2022/11/11 08:15:23;;;;;;;1.03;1.03;;;;;4.70;97515.00;;;;5095462;28;20226;-56
2022/11/11 08:17:50;;;;;;;0.80;0.80;;;5.50;92.00;4.80;97510.00;;;;5077883;28;20561;-57
2022/11/11 08:20:16;;;;;;;0.70;0.70;;;5.60;91.90;4.80;97514.00;;;;5095723;28;20206;-58
2022/11/11 08:22:45;;;;;;;2.43;1.07;;;5.60;93.10;5.00;97512.00;;;;5095672;28;20212;-56
2022/11/11 08:25:13;;;;;;;0.67;0.67;;;5.80;92.20;5.10;97511.00;;;;5095739;28;20199;-58
2022/11/11 08:27:40;;;;;;;0.93;0.93;;;5.90;92.40;5.00;97509.00;;;;5095517;28;20535;-57
2022/11/11 08:30:09;;;;;;;0.60;0.60;;;5.70;92.20;5.10;97514.00;;;;5095540;28;20229;-56
2022/11/11 08:32:36;;;;;;;0.70;0.70;;;5.80;93.10;5.20;97510.00;;;;5095451;28;20232;-57
2022/11/11 08:35:02;;;;;;;0.70;0.70;;;5.80;93.30;5.10;97510.00;;;;5095585;28;20197;-57
2022/11/11 08:37:31;;;;;;;0.77;0.77;;;5.90;93.20;5.20;97510.00;;;;5095371;28;20232;-57
2022/11/11 08:39:58;;;;;;;0.63;0.63;;;5.90;93.40;5.40;97504.00;;;;5095421;28;20203;-57
2022/11/11 08:42:25;;;;;;;0.73;0.73;;;6.10;93.90;5.60;97515.00;;;;5097317;28;20199;-56
2022/11/11 08:44:51;;;;;;;0.50;0.50;;;6.20;94.80;5.80;97510.00;;;;5094633;28;20232;-58
2022/11/11 08:47:21;;;;;;;0.67;0.67;;;6.50;92.50;5.80;97504.00;;;;5095191;28;20204;-56
2022/11/11 08:49:49;;;;;;;0.50;0.50;;;6.50;93.20;5.90;97495.00;;;;5095024;28;20219;-56
2022/11/11 08:52:16;;;;;;;0.60;0.60;;;6.60;92.90;6.00;97512.00;;;;5077470;28;20219;-58
2022/11/11 08:54:43;;;;;;;0.60;0.60;;;6.70;92.40;6.10;97503.00;;;;5099061;28;20205;-58
2022/11/11 08:57:09;;;;;;;0.77;0.77;;;6.80;93.20;6.30;97503.00;;;;5095113;28;20223;-58
2022/11/11 08:59:36;;;;;;;0.80;0.80;;;6.90;93.40;6.30;97498.00;;;;5094919;28;20193;-57
2022/11/11 09:02:06;;;;;;;1.27;1.23;;;7.20;92.40;6.40;97498.00;;;;5094941;28;20222;-57
2022/11/11 09:04:32;;;;;;;0.87;0.87;;;7.20;93.10;6.60;97500.00;;;;5095099;28;20209;-58
2022/11/11 09:06:58;;;;;;;0.57;0.57;;;7.30;92.40;6.70;97502.00;;;;5095084;28;20255;-57
2022/11/11 09:09:25;;;;;;;0.60;0.60;;;7.40;92.50;6.70;97500.00;;;;5095155;28;20222;-57
2022/11/11 09:11:51;;;;;;;0.70;0.70;;;7.50;91.90;6.80;97499.00;;;;5095002;28;20208;-56
2022/11/11 09:14:18;;;;;;;0.70;0.70;;;7.50;92.40;6.90;97502.00;;;;5094879;28;20194;-56
2022/11/11 09:16:47;;;;;;;0.53;0.53;;;7.60;92.10;7.00;97501.00;;;;5094646;28;20268;-56
2022/11/11 09:19:14;;;;;;;0.80;0.80;;;7.70;92.30;7.10;97493.00;;;;5093771;28;20228;-58
2022/11/11 09:21:40;;;;;;;0.90;0.90;;;7.80;92.70;7.20;97496.00;;;;5094858;28;20654;-58
2022/11/11 09:24:07;;;;;;;0.93;0.93;;;7.90;92.30;7.30;97497.00;;;;5094627;28;20630;-56
2022/11/11 09:26:33;;;;;;;0.77;0.77;;;8.00;92.70;7.50;97498.00;;;;5094820;28;20212;-58
2022/11/11 09:29:00;;;;;;;0.60;0.60;;;8.10;92.70;7.50;97496.00;;;;5093652;28;20300;-56
2022/11/11 09:31:27;;;;;;;0.87;0.87;;;;;7.70;97494.00;;;;5094610;28;20195;-55
2022/11/11 09:33:56;;;;;;;0.90;0.90;;;;;7.90;97492.00;;;;5094502;28;20285;-57
2022/11/11 09:36:23;;;;;;;0.70;0.70;;;8.50;91.20;8.00;97493.00;;;;5094251;28;20691;-56
2022/11/11 09:38:49;;;;;;;0.90;0.90;;;8.70;91.50;8.20;97484.00;;;;5094505;28;20206;-58
2022/11/11 09:41:21;;;;;;;7.43;1.17;;;8.80;91.30;8.30;97490.00;;;;5094506;28;20301;-56
2022/11/11 09:43:56;;;;;;;1.63;1.53;;;8.90;91.60;8.50;97494.00;;;;5094494;28;20187;-55
2022/11/11 09:46:34;;;;;;;0.93;0.93;;;9.10;90.70;8.60;97488.00;;;;5094478;28;20212;-55
2022/11/11 09:49:25;;;;;;;1.23;1.23;;;9.20;90.30;8.80;97481.00;;;;5094217;28;20211;-56
2022/11/11 09:52:02;;;;;;;3.60;1.60;;;9.40;89.80;9.00;97486.00;;;;5094253;28;20206;-57
2022/11/11 09:54:36;;;;;;;0.80;0.80;;;9.50;89.50;9.00;97486.00;;;;5094116;28;20214;-55
2022/11/11 09:57:13;;;;;;;1.27;1.27;;;9.60;88.70;9.30;97486.00;;;;5092927;28;20226;-56
2022/11/11 09:59:46;;;;;;;1.07;1.07;;;9.90;89.20;9.40;97487.00;;;;5094094;28;20623;-56
2022/11/11 10:02:29;;;;;;;0.90;0.90;;;9.90;88.70;9.50;97492.00;;;;5076466;28;20199;-57
2022/11/11 10:05:06;;;;;;;1.03;1.03;;;10.10;87.80;9.50;97490.00;;;;5093947;28;20230;-55
2022/11/11 10:07:40;;;;;;;0.70;0.70;;;10.10;87.10;9.70;97494.00;;;;5094012;28;20202;-57
2022/11/11 10:10:19;;;;;;;0.60;0.60;;;10.20;87.70;9.70;97485.00;;;;5094015;28;20199;-57
2022/11/11 10:12:55;;;;;;;0.87;0.87;;;10.30;88.80;10.00;97463.00;;;;5093960;28;20651;-55
2022/11/11 10:15:26;;;;;;;1.23;1.03;;;10.50;90.20;10.10;97472.00;;;;5094123;28;20194;-57
2022/11/11 10:18:22;;;;;;;3.10;1.37;;;10.70;89.70;10.30;97466.00;;;;5093169;28;20226;-57
2022/11/11 10:20:55;;;;;;;0.80;0.80;;;10.80;90.10;10.40;97477.00;;;;5093810;28;20263;-58
2022/11/11 10:23:30;;;;;;;1.30;1.23;;;11.00;90.00;10.60;97469.00;;;;5093692;28;20222;-59
2022/11/11 10:26:04;;;;;;;0.60;0.60;;;11.20;90.30;10.60;97473.00;;;;5094137;28;20190;-56
2022/11/11 10:28:35;;;;;;;1.17;1.07;;;11.30;88.50;10.70;97454.00;;;;5093737;28;20282;-58
2022/11/11 10:31:12;;;;;;;0.80;0.80;;;11.30;88.50;10.80;97464.00;;;;5093791;28;20241;-55
2022/11/11 10:33:50;;;;;;;1.17;1.17;;;11.40;88.50;11.00;97470.00;;;;5093717;28;20603;-56
2022/11/11 10:36:22;;;;;;;0.73;0.73;;;11.70;87.90;11.30;97463.00;;;;5093825;28;20207;-57
2022/11/11 10:38:56;;;;;;;3.47;1.23;;;11.80;88.50;11.50;97472.00;;;;5093578;28;20198;-61
2022/11/11 10:41:32;;;;;;;0.53;0.53;;;12.00;87.80;11.80;97471.00;;;;5093633;28;20213;-56
2022/11/11 10:44:01;;;;;;;0.83;0.83;;;12.20;87.20;12.00;97477.00;;;;5092804;28;20703;-56
2022/11/11 10:46:41;;;;;;;0.83;0.83;;;12.70;84.90;12.30;97474.00;;;;5093534;28;20253;-56
2022/11/11 10:49:16;;;;;;;0.80;0.80;;;12.70;85.80;12.60;97473.00;;;;5093410;28;20626;-56
2022/11/11 10:51:49;;;;;;;0.70;0.70;;;12.90;83.70;12.50;97468.00;;;;5075763;28;20224;-57
2022/11/11 10:54:21;;;;;;;0.87;0.87;;;;;12.60;97465.00;;;;5093370;28;20259;-57
2022/11/11 10:56:57;;;;;;;0.90;0.90;;;;;12.80;97468.00;;;;5093321;28;20222;-56
2022/11/11 10:59:31;;;;;;;0.67;0.67;;;13.10;80.60;12.90;97468.00;;;;5093384;28;20207;-59
2022/11/11 11:02:08;;;;;;;1.43;1.33;;;13.30;80.60;13.10;97462.00;;;;5093393;28;20190;-56
2022/11/11 11:04:44;;;;;;;0.77;0.77;;;13.40;80.10;13.10;97452.00;;;;5093454;28;20263;-56
2022/11/11 11:07:22;;;;;;;0.90;0.90;;;13.80;79.00;13.60;97457.00;;;;5093597;28;20177;-56
2022/11/11 11:09:54;;;;;;;0.87;0.87;;;;;13.90;97456.00;;;;5096950;28;20195;-59
2022/11/11 11:12:25;;;;;;;0.60;0.60;;;;;14.20;97459.00;;;;5096764;28;20286;-57
2022/11/11 11:15:01;;;;;;;1.70;1.13;;;14.50;73.70;14.30;97450.00;;;;5096931;28;20218;-56
2022/11/11 11:17:37;;;;;;;0.87;0.87;;;14.60;74.50;14.90;97446.00;;;;5096738;28;20218;-56
2022/11/11 11:20:12;;;;;;;1.33;1.20;;;14.90;75.90;15.20;97436.00;;;;5096560;28;20218;-58
2022/11/11 11:22:50;;;;;;;0.73;0.73;;;15.30;72.20;15.50;97450.00;;;;5096726;28;20205;-57
2022/11/11 11:25:18;;;;;;;0.60;0.60;;;15.50;71.70;15.20;97449.00;;;;5096650;28;20221;-59
2022/11/11 11:27:45;;;;;;;0.80;0.80;;;15.40;66.80;15.20;97447.00;;;;5096548;28;20225;-56
2022/11/11 11:30:16;;;;;;;0.60;0.60;;;15.40;67.60;15.40;97440.00;;;;5096500;28;20560;-56
2022/11/11 11:32:56;;;;;;;0.80;0.80;;;15.50;67.40;16.00;97442.00;;;;5096313;28;20585;-57
2022/11/11 11:35:34;;;;;;;0.90;0.90;;;16.00;66.50;16.40;97434.00;;;;5078462;28;20297;-58
2022/11/11 11:38:03;;;;;;;1.07;0.83;;;16.60;63.10;16.70;97441.00;;;;5096104;28;20226;-57
2022/11/11 11:40:49;;;;;;;0.90;0.90;;;17.00;59.90;17.30;97428.00;;;;5095305;28;20272;-56
2022/11/11 11:43:33;;;;;;;1.20;1.20;;;17.50;57.70;18.20;97432.00;;;;5078472;28;20643;-56
2022/11/11 11:46:02;;;;;;;0.77;0.77;;;17.80;56.40;18.60;97439.00;;;;5096163;28;20199;-56
2022/11/11 11:49:14;;;;;;;0.87;0.87;;;18.30;52.20;18.20;97439.00;;;;5095151;28;20231;-57
2022/11/11 11:51:52;;;;;;;0.50;0.50;;;18.30;49.60;18.30;97437.00;;;;5078250;28;20209;-58
2022/11/11 11:54:52;;;;;;;1.10;1.10;;;18.30;49.00;18.20;97436.00;;;;5095952;28;20606;-56
2022/11/11 11:57:39;;;;;;;0.73;0.73;;;18.30;50.00;17.70;97446.00;;;;5094816;28;20360;-59
2022/11/11 12:00:17;;;;;;;0.80;0.80;;;18.00;47.80;17.50;97452.00;;;;5095836;28;20566;-56
2022/11/11 12:03:36;;;;;;;0.80;0.80;;;17.80;49.40;17.30;97432.00;;;;5095869;28;20198;-56
2022/11/11 12:06:13;;;;;;;0.87;0.87;;;17.50;51.80;18.10;97442.00;;;;5045988;28;20343;-56
2022/11/11 12:09:01;;;;;;;0.47;0.47;;;17.90;50.50;18.90;97414.00;;;;5078139;28;20206;-56
2022/11/11 12:11:38;;;;;;;0.50;0.50;;;18.60;48.40;19.70;97421.00;;;;5094866;28;20329;-56
2022/11/11 12:14:30;;;;;;;1.07;1.07;;;19.30;46.60;20.50;97440.00;;;;5095855;28;20218;-56
2022/11/11 12:17:07;;;;;;;0.97;0.97;;;20.00;44.20;20.40;97438.00;;;;5077865;28;20234;-56
2022/11/11 12:19:48;;;;;;;0.70;0.70;;;20.20;41.90;20.20;97422.00;;;;5094685;28;20642;-58
2022/11/11 12:22:32;;;;;;;0.60;0.60;;;20.20;40.80;20.70;97436.00;;;;5077662;28;20198;-56
2022/11/11 12:25:16;;;;;;;2.17;1.13;;;20.40;41.10;20.70;97434.00;;;;5095510;28;20232;-57
2022/11/11 12:27:59;;;;;;;0.57;0.57;;;20.60;39.20;20.70;97438.00;;;;5094606;28;20191;-56
2022/11/11 12:30:27;;;;;;;0.60;0.60;;;20.60;39.10;21.40;97432.00;;;;5077739;28;20288;-57
2022/11/11 12:33:38;;;;;;;0.80;0.80;;;21.20;38.50;22.50;97430.00;;;;5095262;28;20615;-57
2022/11/11 12:36:15;;;;;;;2.20;0.90;;;22.10;37.30;23.40;97419.00;;;;5095458;28;20218;-57